Terminal Aerodrome Forecast
Issued by NWS

Home | Current Version | Previous Version | Text Only | Print | Product List | Glossary On
Versions: 1 2 3 4 5 6 7 8 9 10 11 12 13
000
FTUS45 KRIW 052324
TAFCPR
TAF
KCPR 052324Z 0600/0624 02010KT P6SM VCSH SCT015 OVC050
     FM060300 26008KT P6SM SCT020 OVC050
     FM060800 23006KT P6SM SCT040=

USA.gov is the U.S. government's official web portal to all federal, state and local government web resources and services.